sensor_id;sensor_type;location;lat;lon;timestamp;temperature;humidity
1063;DHT22;520;50.932;6.962;2023-04-25T00:00:05;10.50;94.60
1063;DHT22;520;50.932;6.962;2023-04-25T00:02:50;10.50;94.60
1063;DHT22;520;50.932;6.962;2023-04-25T00:05:23;10.60;94.50
1063;DHT22;520;50.932;6.962;2023-04-25T00:08:12;10.60;94.40
1063;DHT22;520;50.932;6.962;2023-04-25T00:10:45;10.50;94.20
1063;DHT22;520;50.932;6.962;2023-04-25T00:13:18;10.50;94.10
1063;DHT22;520;50.932;6.962;2023-04-25T00:15:55;10.50;94.10
1063;DHT22;520;50.932;6.962;2023-04-25T00:18:23;10.50;94.10
1063;DHT22;520;50.932;6.962;2023-04-25T00:21:07;10.50;94.10
1063;DHT22;520;50.932;6.962;2023-04-25T00:23:45;10.40;94.10
1063;DHT22;520;50.932;6.962;2023-04-25T00:26:15;10.40;94.10
1063;DHT22;520;50.932;6.962;2023-04-25T00:28:45;10.30;94.10
1063;DHT22;520;50.932;6.962;2023-04-25T00:31:26;10.30;94.10
1063;DHT22;520;50.932;6.962;2023-04-25T00:34:00;10.30;94.10
1063;DHT22;520;50.932;6.962;2023-04-25T00:36:30;10.30;94.20
1063;DHT22;520;50.932;6.962;2023-04-25T00:39:02;10.30;94.20
1063;DHT22;520;50.932;6.962;2023-04-25T00:41:47;10.30;94.60
1063;DHT22;520;50.932;6.962;2023-04-25T00:44:23;10.20;94.40
1063;DHT22;520;50.932;6.962;2023-04-25T00:47:01;10.20;94.50
1063;DHT22;520;50.932;6.962;2023-04-25T00:49:28;10.10;94.60
1063;DHT22;520;50.932;6.962;2023-04-25T00:51:59;10.10;94.60
1063;DHT22;520;50.932;6.962;2023-04-25T00:54:32;10.10;94.70
1063;DHT22;520;50.932;6.962;2023-04-25T00:57:18;10.20;94.90
1063;DHT22;520;50.932;6.962;2023-04-25T01:00:04;10.10;94.80
1063;DHT22;520;50.932;6.962;2023-04-25T01:02:45;10.00;94.80
1063;DHT22;520;50.932;6.962;2023-04-25T01:05:25;10.00;94.90
1063;DHT22;520;50.932;6.962;2023-04-25T01:08:04;10.00;95.00
1063;DHT22;520;50.932;6.962;2023-04-25T01:10:51;10.00;95.20
1063;DHT22;520;50.932;6.962;2023-04-25T01:13:30;9.90;95.80
1063;DHT22;520;50.932;6.962;2023-04-25T01:16:04;9.90;95.80
1063;DHT22;520;50.932;6.962;2023-04-25T01:18:42;9.90;95.90
1063;DHT22;520;50.932;6.962;2023-04-25T01:21:34;9.90;95.90
1063;DHT22;520;50.932;6.962;2023-04-25T01:24:15;9.80;96.00
1063;DHT22;520;50.932;6.962;2023-04-25T01:27:01;9.80;96.20
1063;DHT22;520;50.932;6.962;2023-04-25T01:29:33;9.70;96.20
1063;DHT22;520;50.932;6.962;2023-04-25T01:32:22;9.80;96.40
1063;DHT22;520;50.932;6.962;2023-04-25T01:35:08;9.70;96.40
1063;DHT22;520;50.932;6.962;2023-04-25T01:37:43;9.70;96.60
1063;DHT22;520;50.932;6.962;2023-04-25T01:40:24;9.70;96.60
1063;DHT22;520;50.932;6.962;2023-04-25T01:42:57;9.70;96.60
1063;DHT22;520;50.932;6.962;2023-04-25T01:45:39;9.70;96.80
1063;DHT22;520;50.932;6.962;2023-04-25T01:48:26;9.60;96.80
1063;DHT22;520;50.932;6.962;2023-04-25T01:51:06;9.60;96.90
1063;DHT22;520;50.932;6.962;2023-04-25T01:53:44;9.50;96.90
1063;DHT22;520;50.932;6.962;2023-04-25T01:56:19;9.50;97.10
1063;DHT22;520;50.932;6.962;2023-04-25T01:58:49;9.50;97.20
1063;DHT22;520;50.932;6.962;2023-04-25T02:01:16;9.50;97.20
1063;DHT22;520;50.932;6.962;2023-04-25T02:03:53;9.50;97.20
1063;DHT22;520;50.932;6.962;2023-04-25T02:06:35;9.40;97.20
1063;DHT22;520;50.932;6.962;2023-04-25T02:09:28;9.40;97.30
1063;DHT22;520;50.932;6.962;2023-04-25T02:12:07;9.40;97.30
1063;DHT22;520;50.932;6.962;2023-04-25T02:14:34;9.40;97.30
1063;DHT22;520;50.932;6.962;2023-04-25T02:17:10;9.40;97.30
1063;DHT22;520;50.932;6.962;2023-04-25T02:19:46;9.40;97.70
1063;DHT22;520;50.932;6.962;2023-04-25T02:22:17;9.30;97.40
1063;DHT22;520;50.932;6.962;2023-04-25T02:24:56;9.30;97.50
1063;DHT22;520;50.932;6.962;2023-04-25T02:27:29;9.40;97.60
1063;DHT22;520;50.932;6.962;2023-04-25T02:30:05;9.30;97.50
1063;DHT22;520;50.932;6.962;2023-04-25T02:32:41;9.30;97.50
1063;DHT22;520;50.932;6.962;2023-04-25T02:35:18;9.40;97.50
1063;DHT22;520;50.932;6.962;2023-04-25T02:37:57;9.40;97.50
1063;DHT22;520;50.932;6.962;2023-04-25T02:40:54;9.40;97.40
1063;DHT22;520;50.932;6.962;2023-04-25T02:43:27;9.40;97.30
1063;DHT22;520;50.932;6.962;2023-04-25T02:45:55;9.40;97.20
1063;DHT22;520;50.932;6.962;2023-04-25T02:48:33;9.40;97.10
1063;DHT22;520;50.932;6.962;2023-04-25T02:51:20;9.40;97.10
1063;DHT22;520;50.932;6.962;2023-04-25T02:54:12;9.40;97.10
1063;DHT22;520;50.932;6.962;2023-04-25T02:57:02;9.40;97.10
1063;DHT22;520;50.932;6.962;2023-04-25T02:59:48;9.50;97.10
1063;DHT22;520;50.932;6.962;2023-04-25T03:02:32;9.40;97.00
1063;DHT22;520;50.932;6.962;2023-04-25T03:05:04;9.40;97.10
1063;DHT22;520;50.932;6.962;2023-04-25T03:07:52;9.50;97.10
1063;DHT22;520;50.932;6.962;2023-04-25T03:10:23;9.60;97.10
1063;DHT22;520;50.932;6.962;2023-04-25T03:13:08;9.50;96.90
1063;DHT22;520;50.932;6.962;2023-04-25T03:15:55;9.50;97.10
1063;DHT22;520;50.932;6.962;2023-04-25T03:18:49;9.50;97.20
1063;DHT22;520;50.932;6.962;2023-04-25T03:21:31;9.50;97.20
1063;DHT22;520;50.932;6.962;2023-04-25T03:24:10;9.50;97.30
1063;DHT22;520;50.932;6.962;2023-04-25T03:26:43;9.40;97.50
1063;DHT22;520;50.932;6.962;2023-04-25T03:29:23;9.40;97.60
1063;DHT22;520;50.932;6.962;2023-04-25T03:32:11;9.40;97.80
1063;DHT22;520;50.932;6.962;2023-04-25T03:34:46;9.40;97.80
1063;DHT22;520;50.932;6.962;2023-04-25T03:37:17;9.40;97.90
1063;DHT22;520;50.932;6.962;2023-04-25T03:40:06;9.40;98.00
1063;DHT22;520;50.932;6.962;2023-04-25T03:42:44;9.40;98.10
1063;DHT22;520;50.932;6.962;2023-04-25T03:45:31;9.60;98.00
1063;DHT22;520;50.932;6.962;2023-04-25T03:48:05;9.60;97.90
1063;DHT22;520;50.932;6.962;2023-04-25T03:50:41;9.50;97.80
1063;DHT22;520;50.932;6.962;2023-04-25T03:53:40;9.60;98.00
1063;DHT22;520;50.932;6.962;2023-04-25T03:56:32;9.60;97.80
1063;DHT22;520;50.932;6.962;2023-04-25T03:59:22;9.70;97.80
1063;DHT22;520;50.932;6.962;2023-04-25T04:01:56;9.60;97.70
1063;DHT22;520;50.932;6.962;2023-04-25T04:04:44;9.50;97.80
1063;DHT22;520;50.932;6.962;2023-04-25T04:07:20;9.40;97.90
1063;DHT22;520;50.932;6.962;2023-04-25T04:10:13;9.40;98.30
1063;DHT22;520;50.932;6.962;2023-04-25T04:16:37;9.40;98.50
1063;DHT22;520;50.932;6.962;2023-04-25T04:19:15;9.40;98.60
1063;DHT22;520;50.932;6.962;2023-04-25T04:21:49;9.60;98.60
1063;DHT22;520;50.932;6.962;2023-04-25T04:27:23;9.60;98.40
1063;DHT22;520;50.932;6.962;2023-04-25T04:30:07;9.60;98.20
1063;DHT22;520;50.932;6.962;2023-04-25T04:38:03;9.40;98.60
1063;DHT22;520;50.932;6.962;2023-04-25T04:40:53;9.40;98.70
1063;DHT22;520;50.932;6.962;2023-04-25T04:43:28;9.40;98.80
1063;DHT22;520;50.932;6.962;2023-04-25T04:49:22;9.40;98.90
1063;DHT22;520;50.932;6.962;2023-04-25T04:52:21;9.40;99.00
1063;DHT22;520;50.932;6.962;2023-04-25T04:55:05;9.40;99.00
1063;DHT22;520;50.932;6.962;2023-04-25T04:57:36;9.50;98.90
1063;DHT22;520;50.932;6.962;2023-04-25T05:00:14;9.50;98.90
1063;DHT22;520;50.932;6.962;2023-04-25T05:03:00;9.50;98.90
1063;DHT22;520;50.932;6.962;2023-04-25T05:05:53;9.50;98.90
1063;DHT22;520;50.932;6.962;2023-04-25T05:08:27;9.50;99.00
1063;DHT22;520;50.932;6.962;2023-04-25T05:10:58;9.40;99.00
1063;DHT22;520;50.932;6.962;2023-04-25T05:13:37;9.40;99.10
1063;DHT22;520;50.932;6.962;2023-04-25T05:19:55;9.40;99.30
1063;DHT22;520;50.932;6.962;2023-04-25T05:22:43;9.50;99.30
1063;DHT22;520;50.932;6.962;2023-04-25T05:25:12;9.50;99.20
1063;DHT22;520;50.932;6.962;2023-04-25T05:28:01;9.40;99.10
1063;DHT22;520;50.932;6.962;2023-04-25T05:30:46;9.50;99.20
1063;DHT22;520;50.932;6.962;2023-04-25T05:33:17;9.50;99.30
1063;DHT22;520;50.932;6.962;2023-04-25T05:36:12;9.60;99.30
1063;DHT22;520;50.932;6.962;2023-04-25T05:38:52;9.70;99.10
1063;DHT22;520;50.932;6.962;2023-04-25T05:41:44;9.70;98.90
1063;DHT22;520;50.932;6.962;2023-04-25T05:44:29;9.80;98.70
1063;DHT22;520;50.932;6.962;2023-04-25T05:47:23;9.80;98.50
1063;DHT22;520;50.932;6.962;2023-04-25T05:50:01;9.80;98.20
1063;DHT22;520;50.932;6.962;2023-04-25T05:53:00;9.80;98.10
1063;DHT22;520;50.932;6.962;2023-04-25T05:55:53;9.80;98.10
1063;DHT22;520;50.932;6.962;2023-04-25T05:58:57;9.90;98.20
1063;DHT22;520;50.932;6.962;2023-04-25T06:01:34;10.00;97.60
1063;DHT22;520;50.932;6.962;2023-04-25T06:04:16;10.20;97.40
1063;DHT22;520;50.932;6.962;2023-04-25T06:07:10;10.60;96.80
1063;DHT22;520;50.932;6.962;2023-04-25T06:10:00;10.90;95.70
1063;DHT22;520;50.932;6.962;2023-04-25T06:13:06;11.40;95.50
1063;DHT22;520;50.932;6.962;2023-04-25T06:15:59;13.30;93.50
1063;DHT22;520;50.932;6.962;2023-04-25T06:21:59;16.00;80.80
1063;DHT22;520;50.932;6.962;2023-04-25T06:25:08;17.90;74.60
1063;DHT22;520;50.932;6.962;2023-04-25T06:27:57;18.80;68.30
1063;DHT22;520;50.932;6.962;2023-04-25T06:30:52;17.70;64.70
1063;DHT22;520;50.932;6.962;2023-04-25T06:33:37;15.30;69.40
1063;DHT22;520;50.932;6.962;2023-04-25T06:36:41;13.40;75.50
1063;DHT22;520;50.932;6.962;2023-04-25T06:39:37;12.40;81.90
1063;DHT22;520;50.932;6.962;2023-04-25T06:42:39;11.90;86.10
1063;DHT22;520;50.932;6.962;2023-04-25T06:45:08;11.80;88.30
1063;DHT22;520;50.932;6.962;2023-04-25T06:48:12;11.60;89.00
1063;DHT22;520;50.932;6.962;2023-04-25T06:54:22;11.50;90.20
1063;DHT22;520;50.932;6.962;2023-04-25T06:57:08;11.90;90.70
1063;DHT22;520;50.932;6.962;2023-04-25T07:00:03;12.40;89.50
1063;DHT22;520;50.932;6.962;2023-04-25T07:06:22;14.40;82.30
1063;DHT22;520;50.932;6.962;2023-04-25T07:09:03;15.30;79.30
1063;DHT22;520;50.932;6.962;2023-04-25T07:15:32;14.70;73.30
1063;DHT22;520;50.932;6.962;2023-04-25T07:18:43;13.40;77.40
1063;DHT22;520;50.932;6.962;2023-04-25T07:21:15;12.60;80.90
1063;DHT22;520;50.932;6.962;2023-04-25T07:24:14;12.50;83.30
1063;DHT22;520;50.932;6.962;2023-04-25T07:26:47;12.70;82.40
1063;DHT22;520;50.932;6.962;2023-04-25T07:32:56;15.10;78.30
1063;DHT22;520;50.932;6.962;2023-04-25T07:35:53;15.00;73.10
1063;DHT22;520;50.932;6.962;2023-04-25T07:38:27;14.50;73.00
1063;DHT22;520;50.932;6.962;2023-04-25T07:41:20;13.80;74.70
1063;DHT22;520;50.932;6.962;2023-04-25T07:43:57;13.90;76.00
1063;DHT22;520;50.932;6.962;2023-04-25T07:46:58;15.50;74.10
1063;DHT22;520;50.932;6.962;2023-04-25T07:49:52;16.20;67.80
1063;DHT22;520;50.932;6.962;2023-04-25T07:52:35;15.50;68.90
1063;DHT22;520;50.932;6.962;2023-04-25T07:55:32;15.90;68.80
1063;DHT22;520;50.932;6.962;2023-04-25T07:58:20;16.70;67.00
1063;DHT22;520;50.932;6.962;2023-04-25T08:00:58;16.20;64.60
1063;DHT22;520;50.932;6.962;2023-04-25T08:03:48;16.00;66.10
1063;DHT22;520;50.932;6.962;2023-04-25T08:06:33;16.50;65.00
1063;DHT22;520;50.932;6.962;2023-04-25T08:09:34;16.60;63.40
1063;DHT22;520;50.932;6.962;2023-04-25T08:12:23;16.30;63.30
1063;DHT22;520;50.932;6.962;2023-04-25T08:15:05;15.70;64.20
1063;DHT22;520;50.932;6.962;2023-04-25T08:17:47;15.80;66.80
1063;DHT22;520;50.932;6.962;2023-04-25T08:20:25;16.00;64.90
1063;DHT22;520;50.932;6.962;2023-04-25T08:23:08;15.90;64.40
1063;DHT22;520;50.932;6.962;2023-04-25T08:26:02;15.70;64.10
1063;DHT22;520;50.932;6.962;2023-04-25T08:28:49;15.00;62.90
1063;DHT22;520;50.932;6.962;2023-04-25T08:31:27;14.80;64.80
1063;DHT22;520;50.932;6.962;2023-04-25T08:34:34;14.90;64.80
1063;DHT22;520;50.932;6.962;2023-04-25T08:37:33;15.10;63.50
1063;DHT22;520;50.932;6.962;2023-04-25T08:40:26;15.60;63.80
1063;DHT22;520;50.932;6.962;2023-04-25T08:46:51;16.50;58.00
1063;DHT22;520;50.932;6.962;2023-04-25T08:49:47;15.80;59.90
1063;DHT22;520;50.932;6.962;2023-04-25T08:52:57;15.50;59.30
1063;DHT22;520;50.932;6.962;2023-04-25T08:55:54;15.10;61.00
1063;DHT22;520;50.932;6.962;2023-04-25T08:58:49;14.40;62.30
1063;DHT22;520;50.932;6.962;2023-04-25T09:01:33;14.10;63.60
1063;DHT22;520;50.932;6.962;2023-04-25T09:04:07;14.00;63.30
1063;DHT22;520;50.932;6.962;2023-04-25T09:07:14;13.70;63.30
1063;DHT22;520;50.932;6.962;2023-04-25T09:10:28;13.80;63.90
1063;DHT22;520;50.932;6.962;2023-04-25T09:13:23;13.30;65.10
1063;DHT22;520;50.932;6.962;2023-04-25T09:16:01;13.40;64.80
1063;DHT22;520;50.932;6.962;2023-04-25T09:19:00;13.10;64.50
1063;DHT22;520;50.932;6.962;2023-04-25T09:22:08;12.70;65.80
1063;DHT22;520;50.932;6.962;2023-04-25T09:24:45;12.50;66.90
1063;DHT22;520;50.932;6.962;2023-04-25T09:27:31;12.30;67.80
1063;DHT22;520;50.932;6.962;2023-04-25T09:30:15;12.20;67.70
1063;DHT22;520;50.932;6.962;2023-04-25T09:32:57;12.30;67.90
1063;DHT22;520;50.932;6.962;2023-04-25T09:35:45;12.40;68.30
1063;DHT22;520;50.932;6.962;2023-04-25T09:38:27;12.40;68.10
1063;DHT22;520;50.932;6.962;2023-04-25T09:41:11;12.50;67.70
1063;DHT22;520;50.932;6.962;2023-04-25T09:43:57;12.60;67.90
1063;DHT22;520;50.932;6.962;2023-04-25T09:46:44;12.70;65.70
1063;DHT22;520;50.932;6.962;2023-04-25T09:49:44;12.70;63.50
1063;DHT22;520;50.932;6.962;2023-04-25T09:52:21;12.50;62.60
1063;DHT22;520;50.932;6.962;2023-04-25T09:54:51;12.40;62.80
1063;DHT22;520;50.932;6.962;2023-04-25T09:57:38;12.30;63.80
1063;DHT22;520;50.932;6.962;2023-04-25T10:00:11;12.40;63.50
1063;DHT22;520;50.932;6.962;2023-04-25T10:02:47;12.50;64.70
1063;DHT22;520;50.932;6.962;2023-04-25T10:05:36;12.60;65.20
1063;DHT22;520;50.932;6.962;2023-04-25T10:08:47;12.70;65.20
1063;DHT22;520;50.932;6.962;2023-04-25T10:11:41;12.60;64.60
1063;DHT22;520;50.932;6.962;2023-04-25T10:14:26;12.40;64.50
1063;DHT22;520;50.932;6.962;2023-04-25T10:16:58;12.20;65.00
1063;DHT22;520;50.932;6.962;2023-04-25T10:19:45;12.10;66.50
1063;DHT22;520;50.932;6.962;2023-04-25T10:22:45;12.30;68.00
1063;DHT22;520;50.932;6.962;2023-04-25T10:25:24;12.30;66.30
1063;DHT22;520;50.932;6.962;2023-04-25T10:27:56;12.50;65.70
1063;DHT22;520;50.932;6.962;2023-04-25T10:31:02;12.40;65.30
1063;DHT22;520;50.932;6.962;2023-04-25T10:33:37;12.30;65.60
1063;DHT22;520;50.932;6.962;2023-04-25T10:36:33;12.40;65.80
1063;DHT22;520;50.932;6.962;2023-04-25T10:39:09;12.20;65.50
1063;DHT22;520;50.932;6.962;2023-04-25T10:41:58;12.30;65.90
1063;DHT22;520;50.932;6.962;2023-04-25T10:44:41;12.40;66.00
1063;DHT22;520;50.932;6.962;2023-04-25T10:47:57;13.00;66.80
1063;DHT22;520;50.932;6.962;2023-04-25T10:50:47;14.00;59.80
1063;DHT22;520;50.932;6.962;2023-04-25T10:53:30;14.20;58.30
1063;DHT22;520;50.932;6.962;2023-04-25T10:56:00;13.80;57.30
1063;DHT22;520;50.932;6.962;2023-04-25T10:59:01;13.50;58.00
1063;DHT22;520;50.932;6.962;2023-04-25T11:01:59;13.20;59.30
1063;DHT22;520;50.932;6.962;2023-04-25T11:04:36;13.00;59.50
1063;DHT22;520;50.932;6.962;2023-04-25T11:07:39;12.90;59.70
1063;DHT22;520;50.932;6.962;2023-04-25T11:10:28;12.80;60.60
1063;DHT22;520;50.932;6.962;2023-04-25T11:13:05;12.60;61.60
1063;DHT22;520;50.932;6.962;2023-04-25T11:18:37;12.40;63.30
1063;DHT22;520;50.932;6.962;2023-04-25T11:21:11;12.40;63.90
1063;DHT22;520;50.932;6.962;2023-04-25T11:26:58;12.40;63.50
1063;DHT22;520;50.932;6.962;2023-04-25T11:29:36;12.50;61.10
1063;DHT22;520;50.932;6.962;2023-04-25T11:32:51;12.40;59.70
1063;DHT22;520;50.932;6.962;2023-04-25T11:35:30;12.50;59.60
1063;DHT22;520;50.932;6.962;2023-04-25T11:38:20;12.70;59.80
1063;DHT22;520;50.932;6.962;2023-04-25T11:40:54;12.80;59.80
1063;DHT22;520;50.932;6.962;2023-04-25T11:43:30;12.90;59.90
1063;DHT22;520;50.932;6.962;2023-04-25T11:46:15;13.30;60.00
1063;DHT22;520;50.932;6.962;2023-04-25T11:48:52;13.60;59.40
1063;DHT22;520;50.932;6.962;2023-04-25T11:51:42;13.90;58.90
1063;DHT22;520;50.932;6.962;2023-04-25T11:54:23;14.30;58.60
1063;DHT22;520;50.932;6.962;2023-04-25T11:59:32;14.70;55.40
1063;DHT22;520;50.932;6.962;2023-04-25T12:02:26;14.50;53.90
1063;DHT22;520;50.932;6.962;2023-04-25T12:05:26;14.60;54.50
1063;DHT22;520;50.932;6.962;2023-04-25T12:08:15;14.60;54.00
1063;DHT22;520;50.932;6.962;2023-04-25T12:10:52;14.90;53.00
1063;DHT22;520;50.932;6.962;2023-04-25T12:13:38;15.30;51.90
1063;DHT22;520;50.932;6.962;2023-04-25T12:16:27;15.70;51.60
1063;DHT22;520;50.932;6.962;2023-04-25T12:19:13;16.10;49.30
1063;DHT22;520;50.932;6.962;2023-04-25T12:22:18;16.10;47.90
1063;DHT22;520;50.932;6.962;2023-04-25T12:28:29;15.90;46.60
1063;DHT22;520;50.932;6.962;2023-04-25T12:31:15;16.00;45.70
1063;DHT22;520;50.932;6.962;2023-04-25T12:34:17;16.60;45.70
1063;DHT22;520;50.932;6.962;2023-04-25T12:37:13;16.40;45.00
1063;DHT22;520;50.932;6.962;2023-04-25T12:40:00;16.20;46.10
1063;DHT22;520;50.932;6.962;2023-04-25T12:42:45;16.00;46.40
1063;DHT22;520;50.932;6.962;2023-04-25T12:45:27;16.20;46.20
1063;DHT22;520;50.932;6.962;2023-04-25T12:48:00;15.70;46.80
1063;DHT22;520;50.932;6.962;2023-04-25T12:50:42;15.40;47.50
1063;DHT22;520;50.932;6.962;2023-04-25T12:53:33;15.20;48.00
1063;DHT22;520;50.932;6.962;2023-04-25T12:56:10;15.00;48.00
1063;DHT22;520;50.932;6.962;2023-04-25T12:58:41;14.80;48.60
1063;DHT22;520;50.932;6.962;2023-04-25T13:01:18;14.80;49.30
1063;DHT22;520;50.932;6.962;2023-04-25T13:03:52;14.80;49.80
1063;DHT22;520;50.932;6.962;2023-04-25T13:06:23;14.80;50.60
1063;DHT22;520;50.932;6.962;2023-04-25T13:09:08;14.60;51.10
1063;DHT22;520;50.932;6.962;2023-04-25T13:12:12;14.50;50.70
1063;DHT22;520;50.932;6.962;2023-04-25T13:14:51;14.70;50.80
1063;DHT22;520;50.932;6.962;2023-04-25T13:17:29;14.40;50.80
1063;DHT22;520;50.932;6.962;2023-04-25T13:20:18;14.30;50.80
1063;DHT22;520;50.932;6.962;2023-04-25T13:23:19;14.30;50.50
1063;DHT22;520;50.932;6.962;2023-04-25T13:25:47;14.50;49.80
1063;DHT22;520;50.932;6.962;2023-04-25T13:28:24;14.40;48.60
1063;DHT22;520;50.932;6.962;2023-04-25T13:31:18;14.50;48.80
1063;DHT22;520;50.932;6.962;2023-04-25T13:34:01;15.00;46.50
1063;DHT22;520;50.932;6.962;2023-04-25T13:37:07;14.90;46.40
1063;DHT22;520;50.932;6.962;2023-04-25T13:43:01;15.10;45.80
1063;DHT22;520;50.932;6.962;2023-04-25T13:45:39;15.30;45.70
1063;DHT22;520;50.932;6.962;2023-04-25T13:48:12;15.50;45.60
1063;DHT22;520;50.932;6.962;2023-04-25T13:50:58;15.70;45.30
1063;DHT22;520;50.932;6.962;2023-04-25T13:56:46;15.90;44.30
1063;DHT22;520;50.932;6.962;2023-04-25T13:59:28;16.10;44.20
1063;DHT22;520;50.932;6.962;2023-04-25T14:02:28;15.90;44.30
1063;DHT22;520;50.932;6.962;2023-04-25T14:05:21;15.60;44.40
1063;DHT22;520;50.932;6.962;2023-04-25T14:08:13;15.70;44.50
1063;DHT22;520;50.932;6.962;2023-04-25T14:11:05;15.80;43.80
1063;DHT22;520;50.932;6.962;2023-04-25T14:13:37;15.70;43.30
1063;DHT22;520;50.932;6.962;2023-04-25T14:16:42;15.70;43.70
1063;DHT22;520;50.932;6.962;2023-04-25T14:19:28;15.70;44.00
1063;DHT22;520;50.932;6.962;2023-04-25T14:22:01;15.70;44.50
1063;DHT22;520;50.932;6.962;2023-04-25T14:24:44;15.70;44.40
1063;DHT22;520;50.932;6.962;2023-04-25T14:27:24;15.70;45.00
1063;DHT22;520;50.932;6.962;2023-04-25T14:30:21;15.80;46.40
1063;DHT22;520;50.932;6.962;2023-04-25T14:33:02;15.70;48.10
1063;DHT22;520;50.932;6.962;2023-04-25T14:35:40;15.90;49.40
1063;DHT22;520;50.932;6.962;2023-04-25T14:38:17;16.00;49.10
1063;DHT22;520;50.932;6.962;2023-04-25T14:41:16;15.90;48.60
1063;DHT22;520;50.932;6.962;2023-04-25T14:43:59;16.00;48.10
1063;DHT22;520;50.932;6.962;2023-04-25T14:46:47;16.00;46.20
1063;DHT22;520;50.932;6.962;2023-04-25T14:49:40;16.00;43.50
1063;DHT22;520;50.932;6.962;2023-04-25T14:52:24;16.10;41.90
1063;DHT22;520;50.932;6.962;2023-04-25T14:54:55;16.10;40.30
1063;DHT22;520;50.932;6.962;2023-04-25T14:57:48;15.90;41.00
1063;DHT22;520;50.932;6.962;2023-04-25T15:00:23;15.70;44.00
1063;DHT22;520;50.932;6.962;2023-04-25T15:02:57;15.40;45.20
1063;DHT22;520;50.932;6.962;2023-04-25T15:05:40;15.30;46.40
1063;DHT22;520;50.932;6.962;2023-04-25T15:08:36;15.30;46.90
1063;DHT22;520;50.932;6.962;2023-04-25T15:11:27;14.90;47.40
1063;DHT22;520;50.932;6.962;2023-04-25T15:14:17;14.80;47.50
1063;DHT22;520;50.932;6.962;2023-04-25T15:16:58;14.70;47.90
1063;DHT22;520;50.932;6.962;2023-04-25T15:19:25;14.60;47.30
1063;DHT22;520;50.932;6.962;2023-04-25T15:22:04;14.60;47.10
1063;DHT22;520;50.932;6.962;2023-04-25T15:25:01;14.70;47.20
1063;DHT22;520;50.932;6.962;2023-04-25T15:27:38;14.60;47.10
1063;DHT22;520;50.932;6.962;2023-04-25T15:30:53;14.70;46.90
1063;DHT22;520;50.932;6.962;2023-04-25T15:34:04;14.60;46.60
1063;DHT22;520;50.932;6.962;2023-04-25T15:36:51;14.50;46.30
1063;DHT22;520;50.932;6.962;2023-04-25T15:39:34;14.40;46.40
1063;DHT22;520;50.932;6.962;2023-04-25T15:45:16;14.50;47.30
1063;DHT22;520;50.932;6.962;2023-04-25T15:47:55;14.60;47.30
1063;DHT22;520;50.932;6.962;2023-04-25T15:50:45;14.60;48.10
1063;DHT22;520;50.932;6.962;2023-04-25T15:53:23;14.60;48.80
1063;DHT22;520;50.932;6.962;2023-04-25T15:58:52;14.40;48.70
1063;DHT22;520;50.932;6.962;2023-04-25T16:01:37;14.40;48.90
1063;DHT22;520;50.932;6.962;2023-04-25T16:04:41;14.40;48.90
1063;DHT22;520;50.932;6.962;2023-04-25T16:07:40;14.50;49.50
1063;DHT22;520;50.932;6.962;2023-04-25T16:10:17;14.60;50.10
1063;DHT22;520;50.932;6.962;2023-04-25T16:13:02;14.70;50.40
1063;DHT22;520;50.932;6.962;2023-04-25T16:15:44;14.60;50.30
1063;DHT22;520;50.932;6.962;2023-04-25T16:18:39;14.50;50.00
1063;DHT22;520;50.932;6.962;2023-04-25T16:21:23;14.30;50.10
1063;DHT22;520;50.932;6.962;2023-04-25T16:23:58;14.30;50.10
1063;DHT22;520;50.932;6.962;2023-04-25T16:26:36;14.30;50.80
1063;DHT22;520;50.932;6.962;2023-04-25T16:29:26;14.20;50.20
1063;DHT22;520;50.932;6.962;2023-04-25T16:32:04;14.20;49.30
1063;DHT22;520;50.932;6.962;2023-04-25T16:34:35;14.20;49.40
1063;DHT22;520;50.932;6.962;2023-04-25T16:37:16;14.00;49.60
1063;DHT22;520;50.932;6.962;2023-04-25T16:39:49;14.00;50.00
1063;DHT22;520;50.932;6.962;2023-04-25T16:42:23;14.10;50.10
1063;DHT22;520;50.932;6.962;2023-04-25T16:48:30;13.90;50.10
1063;DHT22;520;50.932;6.962;2023-04-25T16:51:06;13.70;50.90
1063;DHT22;520;50.932;6.962;2023-04-25T16:53:45;13.80;51.40
1063;DHT22;520;50.932;6.962;2023-04-25T16:56:30;13.90;52.70
1063;DHT22;520;50.932;6.962;2023-04-25T16:59:06;13.80;52.30
1063;DHT22;520;50.932;6.962;2023-04-25T17:01:39;13.80;52.60
1063;DHT22;520;50.932;6.962;2023-04-25T17:04:16;13.90;52.40
1063;DHT22;520;50.932;6.962;2023-04-25T17:10:02;14.00;52.70
1063;DHT22;520;50.932;6.962;2023-04-25T17:15:27;13.80;51.90
1063;DHT22;520;50.932;6.962;2023-04-25T17:18:07;13.80;52.40
1063;DHT22;520;50.932;6.962;2023-04-25T17:20:48;13.80;52.20
1063;DHT22;520;50.932;6.962;2023-04-25T17:23:38;13.70;52.30
1063;DHT22;520;50.932;6.962;2023-04-25T17:26:52;13.70;52.50
1063;DHT22;520;50.932;6.962;2023-04-25T17:29:31;13.80;52.10
1063;DHT22;520;50.932;6.962;2023-04-25T17:32:11;13.70;51.90
1063;DHT22;520;50.932;6.962;2023-04-25T17:35:12;13.90;51.40
1063;DHT22;520;50.932;6.962;2023-04-25T17:38:33;13.90;51.10
1063;DHT22;520;50.932;6.962;2023-04-25T17:41:23;13.70;51.10
1063;DHT22;520;50.932;6.962;2023-04-25T17:43:55;13.70;51.80
1063;DHT22;520;50.932;6.962;2023-04-25T17:46:45;13.50;52.00
1063;DHT22;520;50.932;6.962;2023-04-25T17:49:22;13.40;52.80
1063;DHT22;520;50.932;6.962;2023-04-25T17:52:04;13.30;52.60
1063;DHT22;520;50.932;6.962;2023-04-25T17:54:47;13.20;52.70
1063;DHT22;520;50.932;6.962;2023-04-25T17:57:34;13.10;52.70
1063;DHT22;520;50.932;6.962;2023-04-25T18:00:26;13.10;52.70
1063;DHT22;520;50.932;6.962;2023-04-25T18:06:39;12.90;52.50
1063;DHT22;520;50.932;6.962;2023-04-25T18:09:20;12.70;52.60
1063;DHT22;520;50.932;6.962;2023-04-25T18:12:21;12.70;53.00
1063;DHT22;520;50.932;6.962;2023-04-25T18:15:15;12.60;53.60
1063;DHT22;520;50.932;6.962;2023-04-25T18:18:03;12.60;54.00
1063;DHT22;520;50.932;6.962;2023-04-25T18:20:43;12.60;54.30
1063;DHT22;520;50.932;6.962;2023-04-25T18:23:16;12.60;54.40
1063;DHT22;520;50.932;6.962;2023-04-25T18:25:55;12.60;54.70
1063;DHT22;520;50.932;6.962;2023-04-25T18:31:12;12.50;54.70
1063;DHT22;520;50.932;6.962;2023-04-25T18:34:04;12.60;54.80
1063;DHT22;520;50.932;6.962;2023-04-25T18:36:35;12.50;54.80
1063;DHT22;520;50.932;6.962;2023-04-25T18:39:11;12.60;55.20
1063;DHT22;520;50.932;6.962;2023-04-25T18:41:49;12.50;55.00
1063;DHT22;520;50.932;6.962;2023-04-25T18:44:34;12.50;55.30
1063;DHT22;520;50.932;6.962;2023-04-25T18:47:19;12.50;55.50
1063;DHT22;520;50.932;6.962;2023-04-25T18:49:57;12.50;55.10
1063;DHT22;520;50.932;6.962;2023-04-25T18:52:48;12.40;55.40
1063;DHT22;520;50.932;6.962;2023-04-25T18:55:27;12.40;54.80
1063;DHT22;520;50.932;6.962;2023-04-25T18:58:12;12.20;54.80
1063;DHT22;520;50.932;6.962;2023-04-25T19:00:51;12.20;54.80
1063;DHT22;520;50.932;6.962;2023-04-25T19:03:48;12.20;54.30
1063;DHT22;520;50.932;6.962;2023-04-25T19:06:31;12.10;54.10
1063;DHT22;520;50.932;6.962;2023-04-25T19:09:04;12.10;53.70
1063;DHT22;520;50.932;6.962;2023-04-25T19:11:48;12.10;53.80
1063;DHT22;520;50.932;6.962;2023-04-25T19:14:32;12.10;54.00
1063;DHT22;520;50.932;6.962;2023-04-25T19:17:16;12.10;54.20
1063;DHT22;520;50.932;6.962;2023-04-25T19:19:49;12.00;54.40
1063;DHT22;520;50.932;6.962;2023-04-25T19:22:31;11.90;54.90
1063;DHT22;520;50.932;6.962;2023-04-25T19:25:49;11.80;55.20
1063;DHT22;520;50.932;6.962;2023-04-25T19:28:55;11.80;55.60
1063;DHT22;520;50.932;6.962;2023-04-25T19:31:37;11.70;55.90
1063;DHT22;520;50.932;6.962;2023-04-25T19:34:11;11.70;56.20